Cadiz, KY

9:16 AM CDT on June 03, 2015 (GMT -0500)
enchanted shores | | Change Station
CLOSE
Current Station
Personal Weather Station
Location: Cadiz, KY
Elevation: 404 ft
Nearby Weather Stations

Elev 404 ft 36.86 °N, 87.94 °W | Updated 1 minute ago

Clear
Clear
66.0 °F
Feels Like 66.0 °F
N
0.0
Wind Variable Wind from WSW

Today
High -- | Low -- °F
--% Chance of Precip.
Yesterday
High -- | Low -- °F
Precip. -- in
5:33 AM 8:06 PM
Full, 99% visible
Pressure 30.05 in
Visibility 10.0 miles
Clouds Mostly Cloudy 1700 ft
Dew Point 62 °F
Humidity 86%
Rainfall 0.00 in
Snow Depth Not available.
UV 3 out of 12
Pollen 6.40 out of 12
Air Quality Not available.
Flu Activity No Activity
SPECI KHOP 031407Z AUTO 05005KT 10SM BKN017 17/13 A3005 RMK AO2 BKN V FEW

More Conditions Fewer Conditions

Pressure 30.05 in
Visibility 10.0 miles
Clouds Mostly Cloudy 1700 ft
Dew Point 62 °F
Humidity 86%
Rainfall 0.00 in
Snow Depth Not available.
UV 3 out of 12
Pollen 6.40 out of 12
Air Quality Not available.
Flu Activity No Activity
SPECI KHOP 031407Z AUTO 05005KT 10SM BKN017 17/13 A3005 RMK AO2 BKN V FEW

More Conditions Fewer Conditions

10-Day Weather Forecast

×

Almanac

Astronomy

Jun. 03, 2015 Rise Set
Actual Time
Civil Twilight
Nautical Twilight
Astronomical Twilight
Moon
Length of Visible Light
Length of Day
Tomorrow will be .
, % of the Moon is Illuminated

Today's Extremes

State Highs State Lows

Community

WunderPhotos

Upload Photos

1,826,226 photos uploaded!

WunderBlogs® & News

Nearby

Air Quality

  Air Quality AQ Index Pollutant
Not available.

Snow Depth

Station Depth Elevation

Earthquake Activity

City Distance Mag. Time & Date
Minimum magnitude displayed is 2.5.

Coastal Water Temperatures

Place Temperature

Stations

Nearby Weather Stations

Station Location Temp. Windchill Dew Point Humidity Wind Precip. Elev Updated Type